createdAt,value
2018-06-25T00:00:28.249Z,61.76
2018-06-25T00:02:57.432Z,61.53
2018-06-25T00:05:26.653Z,61.06
2018-06-25T00:07:55.834Z,61.52
2018-06-25T00:10:25.047Z,61.95
2018-06-25T00:12:54.297Z,61.87
2018-06-25T00:15:23.725Z,61.35
2018-06-25T00:17:52.966Z,62.01
2018-06-25T00:20:22.290Z,61.69
2018-06-25T00:22:51.610Z,62.06
2018-06-25T00:25:21.437Z,61.83
2018-06-25T00:27:50.742Z,61.36
2018-06-25T00:30:20.981Z,61.63
2018-06-25T00:32:50.383Z,61.86
2018-06-25T00:35:19.650Z,62.65
2018-06-25T00:37:48.887Z,62.39
2018-06-25T00:40:18.147Z,62.66
2018-06-25T00:42:47.135Z,62.37
2018-06-25T00:45:16.479Z,61.92
2018-06-25T00:47:45.456Z,61.26
2018-06-25T00:50:14.670Z,61.50
2018-06-25T00:52:43.902Z,61.36
2018-06-25T00:55:13.182Z,61.98
2018-06-25T00:57:42.449Z,61.74
2018-06-25T01:00:11.689Z,61.88
2018-06-25T01:02:40.914Z,62.01
2018-06-25T01:05:10.139Z,61.82
2018-06-25T01:07:39.377Z,62.60
2018-06-25T01:10:08.638Z,62.68
2018-06-25T01:12:37.855Z,62.94
2018-06-25T01:15:07.102Z,62.64
2018-06-25T01:17:36.168Z,62.87
2018-06-25T01:20:05.431Z,63.05
2018-06-25T01:22:34.699Z,63.23
2018-06-25T01:25:04.134Z,63.54
2018-06-25T01:27:33.382Z,62.94
2018-06-25T01:30:02.667Z,63.93
2018-06-25T01:32:31.916Z,64.19
2018-06-25T01:35:01.155Z,63.44
2018-06-25T01:37:30.400Z,63.41
2018-06-25T01:39:59.639Z,63.85
2018-06-25T01:42:28.895Z,63.71
2018-06-25T01:44:58.152Z,64.88
2018-06-25T01:47:27.407Z,64.33
2018-06-25T01:49:56.645Z,64.56
2018-06-25T01:52:25.968Z,64.75
2018-06-25T01:54:55.215Z,64.45
2018-06-25T01:57:24.488Z,64.57
2018-06-25T01:59:53.760Z,65.14
2018-06-25T02:02:23.050Z,64.76
2018-06-25T02:04:52.277Z,64.77
2018-06-25T02:07:21.538Z,64.80
2018-06-25T02:09:50.787Z,65.51
2018-06-25T02:12:19.806Z,65.22
2018-06-25T02:14:49.043Z,65.15
2018-06-25T02:17:18.342Z,65.44
2018-06-25T02:19:47.583Z,65.53
2018-06-25T02:22:16.831Z,65.23
2018-06-25T02:24:46.035Z,65.51
2018-06-25T02:27:15.298Z,65.90
2018-06-25T02:29:44.535Z,65.93
2018-06-25T02:32:13.842Z,66.14
2018-06-25T02:34:43.104Z,65.79
2018-06-25T02:37:12.341Z,65.86
2018-06-25T02:39:41.626Z,66.13
2018-06-25T02:42:10.906Z,66.25
2018-06-25T02:44:40.167Z,66.17
2018-06-25T02:47:09.386Z,66.66
2018-06-25T02:49:38.693Z,66.77
2018-06-25T02:52:07.950Z,66.90
2018-06-25T02:54:37.203Z,67.17
2018-06-25T02:57:06.447Z,67.30
2018-06-25T02:59:35.707Z,67.30
2018-06-25T03:02:04.986Z,66.18
2018-06-25T03:04:34.244Z,66.72
2018-06-25T03:07:03.491Z,66.74
2018-06-25T03:09:32.851Z,67.32
2018-06-25T03:12:02.071Z,67.40
2018-06-25T03:14:31.320Z,67.32
2018-06-25T03:17:00.498Z,67.84
2018-06-25T03:19:29.442Z,68.22
2018-06-25T03:21:58.645Z,68.10
2018-06-25T03:24:27.871Z,68.31
2018-06-25T03:26:57.101Z,68.72
2018-06-25T03:29:26.327Z,69.19
2018-06-25T03:31:55.555Z,69.35
2018-06-25T03:34:24.819Z,69.71
2018-06-25T03:36:54.015Z,69.54
2018-06-25T03:39:23.307Z,69.83
2018-06-25T03:41:52.483Z,69.81
2018-06-25T03:44:21.742Z,69.76
2018-06-25T03:46:50.948Z,69.92
2018-06-25T03:49:20.164Z,69.81
2018-06-25T03:51:49.388Z,70.32
2018-06-25T03:54:18.667Z,70.13
2018-06-25T03:56:47.916Z,69.97
2018-06-25T03:59:17.123Z,70.26
2018-06-25T04:01:46.241Z,70.28
2018-06-25T04:04:15.515Z,70.48
2018-06-25T04:06:44.723Z,69.57
2018-06-25T04:09:13.918Z,69.64
2018-06-25T04:11:43.188Z,69.65
2018-06-25T04:14:12.388Z,69.47
2018-06-25T04:16:41.619Z,69.62
2018-06-25T04:19:10.863Z,69.66
2018-06-25T04:21:40.099Z,69.00
2018-06-25T04:24:09.322Z,68.64
2018-06-25T04:26:38.574Z,68.49
2018-06-25T04:29:07.847Z,68.52
2018-06-25T04:31:37.200Z,67.72
2018-06-25T04:34:06.462Z,67.90
2018-06-25T04:36:35.722Z,68.03
2018-06-25T04:39:07.892Z,68.04
2018-06-25T04:41:37.258Z,66.97
2018-06-25T04:44:06.682Z,67.68
2018-06-25T04:46:36.275Z,67.19
2018-06-25T04:49:05.955Z,67.50
2018-06-25T04:51:35.239Z,66.33
2018-06-25T04:54:04.546Z,67.22
2018-06-25T04:56:33.875Z,65.29
2018-06-25T04:59:03.151Z,65.83
2018-06-25T05:01:32.576Z,66.04
2018-06-25T05:04:01.867Z,65.13
2018-06-25T05:06:31.165Z,65.38
2018-06-25T05:09:00.392Z,65.54
2018-06-25T05:11:29.655Z,65.70
2018-06-25T05:13:58.948Z,65.49
2018-06-25T05:16:27.951Z,64.72
2018-06-25T05:18:56.949Z,65.34
2018-06-25T05:21:26.210Z,64.21
2018-06-25T05:23:55.512Z,65.41
2018-06-25T05:26:24.955Z,65.58
2018-06-25T05:28:54.206Z,64.99
2018-06-25T05:31:23.611Z,64.73
2018-06-25T05:33:53.024Z,64.85
2018-06-25T05:36:22.472Z,64.18
2018-06-25T05:38:51.581Z,64.59
2018-06-25T05:41:20.879Z,65.17
2018-06-25T05:43:50.302Z,64.78
2018-06-25T05:46:19.381Z,64.52
2018-06-25T05:48:48.838Z,63.85
2018-06-25T05:51:18.175Z,64.84
2018-06-25T05:53:47.461Z,63.75
2018-06-25T05:56:16.762Z,64.17
2018-06-25T05:58:46.048Z,65.13
2018-06-25T06:01:15.296Z,64.59
2018-06-25T06:03:44.524Z,64.48
2018-06-25T06:06:13.801Z,66.33
2018-06-25T06:08:43.111Z,65.80
2018-06-25T06:11:12.332Z,64.80
2018-06-25T06:13:41.591Z,64.68
2018-06-25T06:16:10.861Z,65.37
2018-06-25T06:18:40.109Z,64.97
2018-06-25T06:21:09.359Z,65.70
2018-06-25T06:23:38.603Z,64.75
2018-06-25T06:26:07.823Z,64.29
2018-06-25T06:28:37.098Z,65.40
2018-06-25T06:31:06.366Z,64.91
2018-06-25T06:33:35.635Z,66.41
2018-06-25T06:36:04.899Z,65.64
2018-06-25T06:38:34.168Z,65.78
2018-06-25T06:41:03.419Z,66.15
2018-06-25T06:43:32.635Z,65.98
2018-06-25T06:46:01.887Z,65.67
2018-06-25T06:48:31.206Z,65.84
2018-06-25T06:51:00.507Z,65.01
2018-06-25T06:53:29.760Z,64.92
2018-06-25T06:55:58.741Z,65.66
2018-06-25T06:58:28.019Z,65.54
2018-06-25T07:00:57.255Z,66.31
2018-06-25T07:03:26.495Z,66.38
2018-06-25T07:05:55.736Z,65.75
2018-06-25T07:08:24.958Z,66.26
2018-06-25T07:10:54.146Z,65.04
2018-06-25T07:13:23.384Z,65.83
2018-06-25T07:15:52.592Z,65.66
2018-06-25T07:18:21.897Z,66.20
2018-06-25T07:20:51.167Z,66.57
2018-06-25T07:23:20.554Z,65.75
2018-06-25T07:25:49.840Z,66.25
2018-06-25T07:28:19.170Z,65.37
2018-06-25T07:30:48.592Z,65.68
2018-06-25T07:33:17.953Z,66.06
2018-06-25T07:35:47.064Z,65.76
2018-06-25T07:38:16.193Z,65.72
2018-06-25T07:40:45.507Z,65.12
2018-06-25T07:43:14.755Z,64.68
2018-06-25T07:45:44.040Z,65.58
2018-06-25T07:48:13.400Z,65.08
2018-06-25T07:50:42.756Z,64.49
2018-06-25T07:53:12.079Z,66.04
2018-06-25T07:55:41.310Z,64.46
2018-06-25T07:58:10.692Z,64.68
2018-06-25T08:00:40.059Z,65.11
2018-06-25T08:03:09.326Z,65.27
2018-06-25T08:05:38.623Z,64.09
2018-06-25T08:08:07.896Z,63.65
2018-06-25T08:10:37.277Z,63.40
2018-06-25T08:13:06.675Z,63.57
2018-06-25T08:15:35.799Z,64.77
2018-06-25T08:18:05.262Z,66.35
2018-06-25T08:20:34.619Z,64.17
2018-06-25T08:23:03.991Z,64.23
2018-06-25T08:25:33.301Z,63.35
2018-06-25T08:28:02.640Z,62.90
2018-06-25T08:30:31.735Z,62.70
2018-06-25T08:33:01.117Z,63.48
2018-06-25T08:35:30.478Z,61.41
2018-06-25T08:37:59.782Z,60.40
2018-06-25T08:40:29.943Z,60.99
2018-06-25T08:42:58.961Z,61.07
2018-06-25T08:45:28.305Z,61.29
2018-06-25T08:47:57.651Z,59.40
2018-06-25T08:50:27.001Z,59.35
2018-06-25T08:52:56.291Z,59.73
2018-06-25T08:55:25.638Z,58.06
2018-06-25T08:57:55.104Z,58.96
2018-06-25T09:00:24.525Z,56.34
2018-06-25T09:02:53.943Z,55.81
2018-06-25T09:05:23.458Z,54.22
2018-06-25T09:07:52.827Z,54.95
2018-06-25T09:10:22.262Z,54.37
2018-06-25T09:12:51.665Z,54.10
2018-06-25T09:15:21.796Z,53.76
2018-06-25T09:17:51.036Z,54.15
2018-06-25T09:20:20.375Z,52.27
2018-06-25T09:22:49.633Z,53.34
2018-06-25T09:25:19.205Z,52.27
2018-06-25T09:27:49.839Z,53.00
2018-06-25T09:30:20.039Z,54.58
2018-06-25T09:32:49.381Z,54.21
2018-06-25T09:35:18.806Z,55.32
2018-06-25T09:37:48.058Z,56.82
2018-06-25T09:40:17.393Z,56.54
2018-06-25T09:42:46.743Z,57.47
2018-06-25T09:45:16.092Z,57.49
2018-06-25T09:47:45.439Z,57.08
2018-06-25T09:50:14.803Z,56.51
2018-06-25T09:52:44.167Z,56.40
2018-06-25T09:55:13.434Z,55.47
2018-06-25T09:57:42.748Z,55.41
2018-06-25T10:00:12.012Z,51.63
2018-06-25T10:02:41.259Z,52.92
2018-06-25T10:05:10.548Z,54.28
2018-06-25T10:07:39.874Z,56.18
2018-06-25T10:10:09.126Z,56.54
2018-06-25T10:12:38.467Z,56.49
2018-06-25T10:15:07.969Z,56.17
2018-06-25T10:17:37.382Z,55.01
2018-06-25T10:20:06.690Z,54.18
2018-06-25T10:22:35.963Z,53.94
2018-06-25T10:25:05.263Z,52.61
2018-06-25T10:27:34.780Z,51.73
2018-06-25T10:30:04.259Z,53.16
2018-06-25T10:32:33.586Z,54.12
2018-06-25T10:35:02.916Z,53.27
2018-06-25T10:37:32.401Z,52.50
2018-06-25T10:40:02.276Z,52.45
2018-06-25T10:42:31.782Z,50.19
2018-06-25T10:45:04.263Z,47.00
2018-06-25T10:47:33.748Z,45.79
2018-06-25T10:50:03.084Z,44.28
2018-06-25T10:52:32.509Z,44.04
2018-06-25T10:55:02.135Z,43.61
2018-06-25T10:57:32.888Z,43.80
2018-06-25T11:00:02.608Z,45.04
2018-06-25T11:02:32.853Z,45.55
2018-06-25T11:05:02.490Z,47.59
2018-06-25T11:07:31.909Z,46.56
2018-06-25T11:10:01.317Z,48.27
2018-06-25T11:12:30.882Z,46.69
2018-06-25T11:15:00.653Z,47.65
2018-06-25T11:17:30.356Z,45.06
2018-06-25T11:20:00.075Z,43.77
2018-06-25T11:22:29.995Z,43.19
2018-06-25T11:24:59.495Z,41.86
2018-06-25T11:27:29.100Z,43.40
2018-06-25T11:29:58.574Z,41.73
2018-06-25T11:32:28.093Z,43.81
2018-06-25T11:34:57.595Z,39.75
2018-06-25T11:37:27.002Z,38.45
2018-06-25T11:39:56.799Z,40.21
2018-06-25T11:42:26.308Z,41.70
2018-06-25T11:44:55.587Z,41.47
2018-06-25T11:47:25.113Z,41.62
2018-06-25T11:49:54.519Z,44.65
2018-06-25T11:52:24.206Z,43.73
2018-06-25T11:54:53.846Z,44.79
2018-06-25T11:57:23.482Z,45.22
2018-06-25T11:59:53.164Z,44.17
2018-06-25T12:02:22.687Z,42.40
2018-06-25T12:04:52.282Z,41.51
2018-06-25T12:07:22.190Z,42.60
2018-06-25T12:09:52.085Z,41.63
2018-06-25T12:12:21.760Z,39.64
2018-06-25T12:14:51.295Z,39.24
2018-06-25T12:17:20.789Z,37.98
2018-06-25T12:19:50.375Z,37.38
2018-06-25T12:22:19.534Z,37.56
2018-06-25T12:24:48.844Z,36.72
2018-06-25T12:27:18.264Z,36.11
2018-06-25T12:29:47.724Z,37.94
2018-06-25T12:32:17.244Z,37.05
2018-06-25T12:34:46.718Z,37.16
2018-06-25T12:37:16.135Z,36.87
2018-06-25T12:39:45.496Z,39.35
2018-06-25T12:42:15.009Z,39.86
2018-06-25T12:44:44.451Z,41.45
2018-06-25T12:47:14.094Z,41.29
2018-06-25T12:49:43.722Z,42.42
2018-06-25T12:52:13.128Z,43.18
2018-06-25T12:54:42.395Z,42.64
2018-06-25T12:57:11.936Z,42.65
2018-06-25T12:59:41.472Z,43.20
2018-06-25T13:02:10.718Z,42.23
2018-06-25T13:04:40.170Z,40.42
2018-06-25T13:07:09.586Z,40.34
2018-06-25T13:09:39.123Z,38.83
2018-06-25T13:12:08.704Z,39.00
2018-06-25T13:14:38.193Z,38.40
2018-06-25T13:17:07.887Z,41.58
2018-06-25T13:19:37.398Z,41.62
2018-06-25T13:22:06.791Z,43.24
2018-06-25T13:24:36.438Z,40.34
2018-06-25T13:27:05.864Z,39.69
2018-06-25T13:29:35.276Z,39.28
2018-06-25T13:32:07.802Z,40.21
2018-06-25T13:34:38.355Z,41.60
2018-06-25T13:37:07.911Z,40.38
2018-06-25T13:39:37.609Z,40.30
2018-06-25T13:42:07.087Z,38.37
2018-06-25T13:44:37.171Z,37.29
2018-06-25T13:47:06.812Z,36.83
2018-06-25T13:49:36.502Z,35.60
2018-06-25T13:52:06.669Z,35.26
2018-06-25T13:54:36.152Z,33.73
2018-06-25T13:57:05.754Z,36.72
2018-06-25T13:59:35.444Z,36.37
2018-06-25T14:02:04.677Z,38.37
2018-06-25T14:04:34.088Z,38.95
2018-06-25T14:07:03.740Z,40.07
2018-06-25T14:09:32.830Z,38.21
2018-06-25T14:12:02.264Z,40.39
2018-06-25T14:14:31.743Z,42.81
2018-06-25T14:17:01.301Z,42.96
2018-06-25T14:19:30.747Z,43.00
2018-06-25T14:22:00.378Z,42.84
2018-06-25T14:24:34.942Z,41.16
2018-06-25T14:27:13.087Z,40.82
2018-06-25T14:29:42.566Z,38.54
2018-06-25T14:32:17.309Z,37.78
2018-06-25T14:34:52.196Z,39.93
2018-06-25T14:37:21.920Z,38.32
2018-06-25T14:39:51.370Z,39.05
2018-06-25T14:42:21.949Z,39.69
2018-06-25T14:44:52.658Z,38.31
2018-06-25T14:47:23.355Z,37.87
2018-06-25T14:49:53.741Z,38.14
2018-06-25T14:52:25.401Z,39.59
2018-06-25T14:54:55.486Z,39.63
2018-06-25T14:57:26.171Z,38.19
2018-06-25T14:59:56.506Z,37.16
2018-06-25T15:02:27.272Z,37.06
2018-06-25T15:04:56.727Z,37.68
2018-06-25T15:07:26.140Z,37.06
2018-06-25T15:09:55.472Z,36.36
2018-06-25T15:12:24.534Z,36.32
2018-06-25T15:14:53.908Z,38.61
2018-06-25T15:17:23.279Z,40.62
2018-06-25T15:19:52.578Z,38.08
2018-06-25T15:22:22.883Z,38.92
2018-06-25T15:24:52.215Z,38.08
2018-06-25T15:27:21.590Z,38.07
2018-06-25T15:29:50.959Z,36.86
2018-06-25T15:32:20.375Z,36.29
2018-06-25T15:34:49.766Z,37.38
2018-06-25T15:37:19.225Z,36.96
2018-06-25T15:39:48.719Z,36.91
2018-06-25T15:42:18.099Z,36.14
2018-06-25T15:44:47.540Z,36.48
2018-06-25T15:47:16.985Z,36.79
2018-06-25T15:49:46.360Z,36.92
2018-06-25T15:52:15.686Z,37.36
2018-06-25T15:54:45.090Z,38.58
2018-06-25T15:57:14.436Z,40.20
2018-06-25T15:59:43.742Z,41.11
2018-06-25T16:02:13.018Z,41.77
2018-06-25T16:04:42.450Z,41.44
2018-06-25T16:07:12.752Z,41.18
2018-06-25T16:09:42.086Z,42.37
2018-06-25T16:12:11.444Z,40.70
2018-06-25T16:14:40.943Z,40.00
2018-06-25T16:17:10.311Z,38.91
2018-06-25T16:19:39.743Z,39.62
2018-06-25T16:22:09.163Z,39.67
2018-06-25T16:24:38.663Z,38.79
2018-06-25T16:27:08.035Z,38.95
2018-06-25T16:29:37.417Z,38.90
2018-06-25T16:32:06.761Z,38.61
2018-06-25T16:34:36.005Z,39.21
2018-06-25T16:37:05.359Z,38.15
2018-06-25T16:39:34.744Z,39.04
2018-06-25T16:42:03.998Z,37.92
2018-06-25T16:44:33.255Z,37.49
2018-06-25T16:47:02.526Z,37.24
2018-06-25T16:49:31.789Z,36.74
2018-06-25T16:52:01.057Z,34.02
2018-06-25T16:54:30.429Z,34.19
2018-06-25T16:56:59.713Z,35.73
2018-06-25T16:59:29.079Z,33.23
2018-06-25T17:01:58.139Z,32.04
2018-06-25T17:04:27.672Z,32.30
2018-06-25T17:06:56.687Z,33.17
2018-06-25T17:09:26.044Z,32.60
2018-06-25T17:11:56.218Z,34.24
2018-06-25T17:14:25.485Z,34.77
2018-06-25T17:16:54.719Z,35.09
2018-06-25T17:19:23.991Z,36.53
2018-06-25T17:21:53.346Z,38.17
2018-06-25T17:24:22.768Z,39.23
2018-06-25T17:26:52.127Z,40.06
2018-06-25T17:29:21.906Z,40.49
2018-06-25T17:31:51.371Z,39.86
2018-06-25T17:34:20.678Z,39.27
2018-06-25T17:36:50.020Z,39.34
2018-06-25T17:39:20.335Z,39.76
2018-06-25T17:41:49.686Z,40.48
2018-06-25T17:44:19.055Z,41.28
2018-06-25T17:46:48.398Z,41.13
2018-06-25T17:49:17.622Z,41.46
2018-06-25T17:51:46.896Z,42.23
2018-06-25T17:54:16.121Z,41.96
2018-06-25T17:56:45.382Z,42.36
2018-06-25T17:59:14.626Z,43.07
2018-06-25T18:01:44.130Z,43.09
2018-06-25T18:04:13.133Z,43.25
2018-06-25T18:06:42.519Z,42.94
2018-06-25T18:09:12.577Z,43.27
2018-06-25T18:11:41.923Z,43.54
2018-06-25T18:14:11.235Z,43.67
2018-06-25T18:16:40.632Z,43.37
2018-06-25T18:19:09.995Z,43.35
2018-06-25T18:21:39.282Z,42.87
2018-06-25T18:24:08.573Z,42.46
2018-06-25T18:26:37.923Z,42.24
2018-06-25T18:29:07.252Z,42.73
2018-06-25T18:31:36.571Z,44.61
2018-06-25T18:34:05.872Z,44.28
2018-06-25T18:36:35.180Z,44.63
2018-06-25T18:39:06.517Z,44.58
2018-06-25T18:41:35.807Z,45.23
2018-06-25T18:44:05.133Z,44.77
2018-06-25T18:46:34.627Z,45.41
2018-06-25T18:49:04.003Z,45.73
2018-06-25T18:51:33.190Z,46.17
2018-06-25T18:54:02.640Z,47.05
2018-06-25T18:56:31.950Z,47.35
2018-06-25T18:59:01.331Z,48.25
2018-06-25T19:01:30.607Z,47.32
2018-06-25T19:03:59.643Z,48.41
2018-06-25T19:06:28.933Z,48.83
2018-06-25T19:08:58.239Z,48.71
2018-06-25T19:11:27.494Z,49.32
2018-06-25T19:13:56.821Z,49.34
2018-06-25T19:16:26.071Z,49.30
2018-06-25T19:18:55.543Z,50.06
2018-06-25T19:21:24.823Z,50.46
2018-06-25T19:23:54.332Z,50.42
2018-06-25T19:26:23.666Z,50.86
2018-06-25T19:28:53.038Z,51.64
2018-06-25T19:31:22.358Z,51.31
2018-06-25T19:33:51.412Z,51.47
2018-06-25T19:36:21.292Z,52.18
2018-06-25T19:38:50.571Z,53.06
2018-06-25T19:41:19.616Z,53.77
2018-06-25T19:43:48.920Z,53.84
2018-06-25T19:46:17.927Z,54.33
2018-06-25T19:48:47.177Z,55.35
2018-06-25T19:51:16.422Z,55.46
2018-06-25T19:53:45.811Z,55.54
2018-06-25T19:56:15.114Z,55.40
2018-06-25T19:58:44.428Z,55.81
2018-06-25T20:01:13.942Z,56.49
2018-06-25T20:03:43.274Z,57.15
2018-06-25T20:06:12.751Z,57.23
2018-06-25T20:08:42.113Z,58.26
2018-06-25T20:18:59.005Z,60.46
2018-06-25T20:25:33.322Z,60.52
2018-06-25T20:28:53.753Z,61.28
2018-06-25T20:35:06.212Z,62.41
2018-06-25T20:48:38.209Z,64.30
2018-06-25T20:51:56.886Z,64.82
2018-06-25T21:01:20.170Z,64.89
2018-06-25T21:04:08.901Z,65.20
2018-06-25T21:07:33.469Z,64.96
2018-06-25T21:10:02.836Z,65.21
2018-06-25T21:12:32.143Z,65.68
2018-06-25T21:15:01.500Z,66.10
2018-06-25T21:17:30.745Z,66.39
2018-06-25T21:20:00.074Z,66.48
2018-06-25T21:22:29.371Z,66.01
2018-06-25T21:24:58.752Z,66.26
2018-06-25T21:27:28.083Z,66.62
2018-06-25T21:29:57.466Z,66.66
2018-06-25T21:32:26.705Z,67.04
2018-06-25T21:34:56.033Z,66.43
2018-06-25T21:37:25.388Z,66.62
2018-06-25T21:39:54.767Z,66.98
2018-06-25T21:42:24.114Z,66.98
2018-06-25T21:44:53.567Z,67.41
2018-06-25T21:47:22.895Z,68.08
2018-06-25T21:49:52.284Z,67.11
2018-06-25T21:52:21.744Z,67.55
2018-06-25T21:54:51.178Z,67.46
2018-06-25T21:57:20.534Z,67.71
2018-06-25T21:59:49.846Z,67.56
2018-06-25T22:02:19.195Z,67.96
2018-06-25T22:04:48.219Z,68.31
2018-06-25T22:07:17.554Z,67.65
2018-06-25T22:09:46.907Z,68.20
2018-06-25T22:12:16.142Z,68.23
2018-06-25T22:14:45.198Z,68.27
2018-06-25T22:17:14.646Z,68.32
2018-06-25T22:19:43.896Z,67.98
2018-06-25T22:22:13.138Z,68.27
2018-06-25T22:24:42.449Z,68.26
2018-06-25T22:27:11.726Z,68.36
2018-06-25T22:29:40.957Z,68.49
2018-06-25T22:32:10.222Z,67.89
2018-06-25T22:34:39.197Z,68.87
2018-06-25T22:37:08.463Z,69.36
2018-06-25T22:39:37.710Z,69.84
2018-06-25T22:42:07.100Z,70.33
2018-06-25T22:44:36.376Z,70.79
2018-06-25T22:47:05.658Z,71.20
2018-06-25T22:49:34.893Z,71.52
2018-06-25T22:52:04.159Z,71.68
2018-06-25T22:54:33.387Z,72.25
2018-06-25T22:57:02.611Z,72.81
2018-06-25T22:59:31.841Z,72.68
2018-06-25T23:02:01.078Z,72.42
2018-06-25T23:04:30.307Z,72.45
2018-06-25T23:06:59.551Z,72.61
2018-06-25T23:09:28.799Z,72.59
2018-06-25T23:11:58.026Z,72.64
2018-06-25T23:14:27.259Z,72.63
2018-06-25T23:16:56.512Z,73.24
2018-06-25T23:19:25.724Z,73.26
2018-06-25T23:21:54.974Z,73.45
2018-06-25T23:24:23.963Z,73.47
2018-06-25T23:26:53.192Z,73.25
2018-06-25T23:29:22.489Z,73.18
2018-06-25T23:31:51.751Z,73.09
2018-06-25T23:34:21.006Z,73.10
2018-06-25T23:36:50.348Z,72.36
2018-06-25T23:39:19.579Z,72.66
2018-06-25T23:41:48.791Z,72.45
2018-06-25T23:44:18.006Z,72.48
2018-06-25T23:46:47.231Z,72.24
2018-06-25T23:49:16.417Z,71.94
2018-06-25T23:51:45.671Z,72.22
2018-06-25T23:54:14.921Z,72.19
2018-06-25T23:56:44.175Z,72.52
2018-06-25T23:59:13.391Z,72.51
